メインページ
METAR-TAF:

METAR-TAF

空港 :

松本空港

松本, 日本

緯度: 36-10N, 経度: 137-56E, 海抜: 668m

現時点の気象観測

当レポートは22分前の07:00(UTC)に作成
南/南東の風 10kt
気温 28°C
湿度 58%
気圧 1012 hPa
視程10km以上
高度4500ftの雲はほとんどない
高度5000ftの雲は散在している
高度8000ftの千切れ雲あり
弱いにわか雨

METAR: RJAF 200700Z 16010KT 9999 -SHRA FEW045 SCT050 BKN080 28/19 Q1012

時間: 16:22 (07:22 UTC)


TAF: 見つかりません

4,000以上の空港の気象観測と天気予報(METAR報とTAF報)

利用可能な観測所は地図上に黄色い丸と赤い丸で示す。

丸の上にカーソルを重ねると観測所名を参照できる。

次にクリックすると気象観測と天気予報を参照できる。

マップの切り替え:黒色「×」印の緑ボタンをクリックして拡大、「-」印の緑ボタンをクリックして縮小、緑色の三角印をクリックして隣りの地図に切り替え


METAR-TAF: